メインページ
METAR-TAF:

METAR-TAF

空港 :

スタンリー, フォークランド諸島

マウント・プレザント空軍基地

緯度: 51-49S, 経度: 058-27W, 海抜: 74m

現時点の気象観測

当レポートは50分前の23:50(UTC)に作成
西の風 9kt
気温 10°C
湿度 62%
気圧 995 hPa
視程10km以上
1,500メートル以下は雲なし、積乱雲なし

METAR: EGYP 112350Z 27009KT CAVOK 10/03 Q0995 BLU

時間: 21:40 (00:40 UTC)

予報

当レポートは1時間48分前の22:52(UTC)に作成
予報は12日の 00時(UTC)から 12日の 18時(UTC)まで有効
西の風 10kt
視程10km以上
高度3000ftの雲はほとんどない
確率 40% :
12日の 02時(UTC)から 12日の 09時(UTC)まで一時的に
視程: 7000m
高度1200ftの千切れ雲あり
12日の 07時(UTC)から 12日の 10時(UTC)まで徐々に
南西の風 20kt、最大30ktの突風を伴う
確率 30% :
12日の 09時(UTC)から 12日の 13時(UTC)まで一時的に
高度800ftの雲は散在している
12日の 15時(UTC)から 12日の 18時(UTC)まで徐々に
西/南西の風 15kt

TAF: EGYP 112252Z 1200/1218 28010KT 9999 FEW030 PROB40 TEMPO 1202/1209 7000 RA BKN012 BECMG 1207/1210 22020G30KT PROB30 TEMPO 1209/1213 SCT008 BECMG 1215/1218 24015KT

4,000以上の空港の気象観測と天気予報(METAR報とTAF報)

利用可能な観測所は地図上に黄色い丸と赤い丸で示す。

丸の上にカーソルを重ねると観測所名を参照できる。

次にクリックすると気象観測と天気予報を参照できる。

マップの切り替え:黒色「×」印の緑ボタンをクリックして拡大、「-」印の緑ボタンをクリックして縮小、緑色の三角印をクリックして隣りの地図に切り替え


METAR-TAF: